createdAt,value
2022-12-01T00:01:25.739Z,46.25
2022-12-01T00:06:23.157Z,39.47
2022-12-01T00:11:20.437Z,45.30
2022-12-01T00:16:20.099Z,48.00
2022-12-01T00:21:23.691Z,44.80
2022-12-01T00:26:21.969Z,43.08
2022-12-01T00:31:20.089Z,46.38
2022-12-01T00:36:18.004Z,45.88
2022-12-01T00:41:15.245Z,45.45
2022-12-01T00:46:12.496Z,52.15
2022-12-01T00:51:09.989Z,47.45
2022-12-01T00:56:07.916Z,50.08
2022-12-01T01:01:05.267Z,43.67
2022-12-01T01:06:11.292Z,38.88
2022-12-01T01:11:09.465Z,39.53
2022-12-01T01:16:13.759Z,44.97
2022-12-01T01:21:16.988Z,43.00
2022-12-01T01:26:18.564Z,45.55
2022-12-01T01:31:19.161Z,51.53
2022-12-01T01:36:17.785Z,50.00
2022-12-01T01:41:15.150Z,45.88
2022-12-01T01:46:16.328Z,45.22
2022-12-01T01:51:15.759Z,41.65
2022-12-01T01:56:13.110Z,43.87
2022-12-01T02:01:10.869Z,45.00
2022-12-01T02:06:09.679Z,42.65
2022-12-01T02:11:25.365Z,44.58
2022-12-01T02:16:36.794Z,52.55
2022-12-01T02:21:47.813Z,45.25
2022-12-01T02:26:52.769Z,43.33
2022-12-01T02:32:00.349Z,44.72
2022-12-01T02:37:07.071Z,40.63
2022-12-01T02:42:56.632Z,40.42
2022-12-01T02:47:56.523Z,45.35
2022-12-01T02:52:54.633Z,41.55
2022-12-01T02:57:52.024Z,43.47
2022-12-01T03:03:21.651Z,50.30
2022-12-01T03:08:46.237Z,45.05
2022-12-01T03:13:58.778Z,47.10
2022-12-01T03:19:13.782Z,46.45
2022-12-01T03:24:19.614Z,48.53
2022-12-01T03:29:43.791Z,42.70
2022-12-01T03:34:46.603Z,39.60
2022-12-01T03:39:46.674Z,41.65
2022-12-01T03:44:57.774Z,38.83
2022-12-01T03:50:07.153Z,41.45
2022-12-01T03:55:04.749Z,33.93
2022-12-01T04:00:03.182Z,41.38
2022-12-01T04:05:00.449Z,41.30
2022-12-01T04:09:57.953Z,45.25
2022-12-01T04:14:56.658Z,46.38
2022-12-01T04:19:54.593Z,46.92
2022-12-01T04:24:52.137Z,40.75
2022-12-01T04:29:49.677Z,43.67
2022-12-01T04:34:47.170Z,44.08
2022-12-01T04:39:45.425Z,39.97
2022-12-01T04:44:42.673Z,41.05
2022-12-01T04:49:40.272Z,43.03
2022-12-01T04:54:39.064Z,40.70
2022-12-01T04:59:37.571Z,44.55
2022-12-01T05:04:38.920Z,51.73
2022-12-01T05:09:45.546Z,50.38
2022-12-01T05:14:44.216Z,37.00
2022-12-01T05:20:00.360Z,43.58
2022-12-01T05:24:57.534Z,39.72
2022-12-01T05:29:54.886Z,43.97
2022-12-01T05:34:52.100Z,50.08
2022-12-01T05:39:49.449Z,40.92
2022-12-01T05:44:46.823Z,40.58
2022-12-01T05:49:44.487Z,39.72
2022-12-01T05:54:41.709Z,42.80
2022-12-01T05:59:38.873Z,40.70
2022-12-01T06:04:36.491Z,37.65
2022-12-01T06:09:33.616Z,43.47
2022-12-01T06:14:30.881Z,37.42
2022-12-01T06:19:28.209Z,38.63
2022-12-01T06:24:25.619Z,37.97
2022-12-01T06:29:22.756Z,39.83
2022-12-01T06:34:20.032Z,48.88
2022-12-01T06:39:18.042Z,39.95
2022-12-01T06:44:15.271Z,50.00
2022-12-01T06:49:13.169Z,35.88
2022-12-01T06:54:15.456Z,34.05
2022-12-01T06:59:12.981Z,37.88
2022-12-01T07:04:10.616Z,40.80
2022-12-01T07:09:07.846Z,31.58
2022-12-01T07:14:05.214Z,37.78
2022-12-01T07:19:02.476Z,40.03
2022-12-01T07:24:00.811Z,61.05
2022-12-01T07:28:58.541Z,51.58
2022-12-01T07:33:55.980Z,38.47
2022-12-01T07:38:53.272Z,36.03
2022-12-01T07:43:50.992Z,28.58
2022-12-01T07:48:49.108Z,32.63
2022-12-01T07:53:48.026Z,33.55
2022-12-01T07:58:45.642Z,33.25
2022-12-01T08:03:43.626Z,36.50
2022-12-01T08:08:41.789Z,35.95
2022-12-01T08:13:39.886Z,29.52
2022-12-01T08:18:39.114Z,28.95
2022-12-01T08:23:36.892Z,27.75
2022-12-01T08:28:36.456Z,35.35
2022-12-01T08:33:47.131Z,37.70
2022-12-01T08:38:45.720Z,29.05
2022-12-01T08:44:01.122Z,28.50
2022-12-01T08:48:58.932Z,26.80
2022-12-01T08:53:57.742Z,25.65
2022-12-01T08:58:55.813Z,23.58
2022-12-01T09:04:06.165Z,26.75
2022-12-01T09:09:04.782Z,21.02
2022-12-01T09:14:02.257Z,22.23
2022-12-01T09:18:59.533Z,23.10
2022-12-01T09:23:57.226Z,26.17
2022-12-01T09:28:58.346Z,17.90
2022-12-01T09:34:04.171Z,28.83
2022-12-01T09:39:01.988Z,31.17
2022-12-01T09:44:01.277Z,18.35
2022-12-01T09:49:03.947Z,17.83
2022-12-01T09:54:02.276Z,16.23
2022-12-01T09:59:02.591Z,13.73
2022-12-01T10:04:08.428Z,14.27
2022-12-01T10:09:27.437Z,11.75
2022-12-01T10:14:24.782Z,12.60
2022-12-01T10:19:57.648Z,12.52
2022-12-01T10:25:03.941Z,13.82
2022-12-01T10:30:10.746Z,12.50
2022-12-01T10:35:16.641Z,14.02
2022-12-01T10:40:16.364Z,15.70
2022-12-01T10:45:22.731Z,13.15
2022-12-01T10:50:28.301Z,12.23
2022-12-01T10:55:41.955Z,16.88
2022-12-01T11:00:59.566Z,8.23
2022-12-01T11:05:59.936Z,5.40
2022-12-01T11:10:57.351Z,5.80
2022-12-01T11:15:57.571Z,6.40
2022-12-01T11:26:20.839Z,7.32
2022-12-01T11:31:20.603Z,6.75
2022-12-01T11:36:52.418Z,6.38
2022-12-01T11:41:54.683Z,12.10
2022-12-01T11:47:07.785Z,7.47
2022-12-01T11:52:24.717Z,8.00
2022-12-01T11:57:37.157Z,9.07
2022-12-01T12:02:44.328Z,8.10
2022-12-01T12:08:35.359Z,7.05
2022-12-01T12:13:51.804Z,11.00
2022-12-01T12:19:33.680Z,6.40
2022-12-01T12:25:04.425Z,6.63
2022-12-01T12:30:22.659Z,8.80
2022-12-01T12:35:29.025Z,7.50
2022-12-01T12:41:03.321Z,6.75
2022-12-01T12:46:07.986Z,6.80
2022-12-01T12:51:35.510Z,6.18
2022-12-01T12:56:34.407Z,16.98
2022-12-01T13:01:38.572Z,14.35
2022-12-01T13:07:28.401Z,11.07
2022-12-01T13:12:35.371Z,11.85
2022-12-01T13:17:37.811Z,13.30
2022-12-01T13:22:37.006Z,15.40
2022-12-01T13:27:40.565Z,10.73
2022-12-01T13:32:40.756Z,8.85
2022-12-01T13:42:36.603Z,11.20
2022-12-01T13:47:55.628Z,9.35
2022-12-01T13:53:10.542Z,8.02
2022-12-01T13:58:07.719Z,8.93
2022-12-01T14:03:17.183Z,6.05
2022-12-01T14:08:28.218Z,10.10
2022-12-01T14:13:28.604Z,7.65
2022-12-01T14:18:49.337Z,10.05
2022-12-01T14:24:06.823Z,9.32
2022-12-01T14:29:07.616Z,10.27
2022-12-01T14:34:10.384Z,7.25
2022-12-01T14:39:21.328Z,7.85
2022-12-01T14:44:33.842Z,11.23
2022-12-01T14:50:00.833Z,11.07
2022-12-01T14:55:06.615Z,10.07
2022-12-01T15:00:06.323Z,10.75
2022-12-01T15:05:21.370Z,9.95
2022-12-01T15:10:34.905Z,15.98
2022-12-01T15:15:32.181Z,13.32
2022-12-01T15:20:37.606Z,11.25
2022-12-01T15:25:37.206Z,11.57
2022-12-01T15:30:34.531Z,13.60
2022-12-01T15:35:31.809Z,8.77
2022-12-01T15:45:57.167Z,9.40
2022-12-01T15:51:17.114Z,11.43
2022-12-01T15:56:14.722Z,10.98
2022-12-01T16:01:17.714Z,13.02
2022-12-01T16:06:15.101Z,10.25
2022-12-01T16:11:16.206Z,10.75
2022-12-01T16:16:39.269Z,15.95
2022-12-01T16:21:52.575Z,15.48
2022-12-01T16:26:57.450Z,14.13
2022-12-01T16:32:22.054Z,17.95
2022-12-01T16:37:20.176Z,15.57
2022-12-01T16:42:21.267Z,14.48
2022-12-01T16:47:29.659Z,14.70
2022-12-01T16:52:44.693Z,16.17
2022-12-01T16:57:42.394Z,12.88
2022-12-01T17:02:39.805Z,16.02
2022-12-01T17:07:37.321Z,22.05
2022-12-01T17:12:34.801Z,23.30
2022-12-01T17:17:32.306Z,14.95
2022-12-01T17:22:29.663Z,15.50
2022-12-01T17:27:27.890Z,11.55
2022-12-01T17:32:26.209Z,11.23
2022-12-01T17:37:23.518Z,13.25
2022-12-01T17:42:21.292Z,12.05
2022-12-01T17:47:18.651Z,12.30
2022-12-01T17:52:15.865Z,12.52
2022-12-01T17:57:13.926Z,18.77
2022-12-01T18:02:13.133Z,13.15
2022-12-01T18:07:10.474Z,14.90
2022-12-01T18:12:08.102Z,16.58
2022-12-01T18:17:05.981Z,13.20
2022-12-01T18:22:03.256Z,16.30
2022-12-01T18:27:00.739Z,16.05
2022-12-01T18:31:59.587Z,17.40
2022-12-01T18:36:56.974Z,17.92
2022-12-01T18:41:54.446Z,20.55
2022-12-01T18:46:51.901Z,17.63
2022-12-01T18:51:49.185Z,17.15
2022-12-01T18:56:46.525Z,11.98
2022-12-01T19:01:45.837Z,12.88
2022-12-01T19:06:44.462Z,37.33
2022-12-01T19:11:48.028Z,13.50
2022-12-01T19:16:45.863Z,15.35
2022-12-01T19:21:45.250Z,18.52
2022-12-01T19:26:42.926Z,14.53
2022-12-01T19:31:40.662Z,15.20
2022-12-01T19:36:37.901Z,17.17
2022-12-01T19:41:35.429Z,17.52
2022-12-01T19:46:33.574Z,18.10
2022-12-01T19:51:35.363Z,15.63
2022-12-01T19:56:33.063Z,23.13
2022-12-01T20:01:30.440Z,18.13
2022-12-01T20:06:30.249Z,20.00
2022-12-01T20:16:30.601Z,16.13
2022-12-01T20:21:31.604Z,15.73
2022-12-01T20:26:51.125Z,18.63
2022-12-01T20:31:49.800Z,14.25
2022-12-01T20:36:47.558Z,13.48
2022-12-01T20:41:45.565Z,15.27
2022-12-01T20:46:45.280Z,13.82
2022-12-01T20:51:42.935Z,15.25
2022-12-01T20:56:40.185Z,15.15
2022-12-01T21:01:37.649Z,16.05
2022-12-01T21:06:34.898Z,15.43
2022-12-01T21:12:05.284Z,16.10
2022-12-01T21:17:30.035Z,13.43
2022-12-01T21:22:27.980Z,18.40
2022-12-01T21:27:26.092Z,12.27
2022-12-01T21:32:31.657Z,17.27
2022-12-01T21:37:29.285Z,18.42
2022-12-01T21:42:30.699Z,25.55
2022-12-01T21:47:30.954Z,11.68
2022-12-01T21:57:48.762Z,15.48
2022-12-01T22:03:00.170Z,12.43
2022-12-01T22:08:13.708Z,14.95
2022-12-01T22:13:11.510Z,15.32
2022-12-01T22:18:22.149Z,11.75
2022-12-01T22:23:20.368Z,14.93
2022-12-01T22:28:25.222Z,16.48
2022-12-01T22:33:24.750Z,13.05
2022-12-01T22:38:28.392Z,12.35
2022-12-01T22:43:29.158Z,9.55
2022-12-01T22:48:45.243Z,10.57
2022-12-01T22:53:44.483Z,11.43
2022-12-01T22:58:41.933Z,11.63
2022-12-01T23:03:39.223Z,11.07
2022-12-01T23:08:36.623Z,13.90
2022-12-01T23:13:34.962Z,11.80
2022-12-01T23:18:33.389Z,12.88
2022-12-01T23:23:36.678Z,11.63
2022-12-01T23:28:36.400Z,13.15
2022-12-01T23:33:34.922Z,13.32
2022-12-01T23:38:37.664Z,13.23
2022-12-01T23:43:40.376Z,10.95
2022-12-01T23:48:45.230Z,12.10
2022-12-01T23:53:43.162Z,13.70
2022-12-01T23:58:40.590Z,14.57
